sensor_id;sensor_type;location;lat;lon;timestamp;P1;durP1;ratioP1;P2;durP2;ratioP2
54899;SDS011;40801;41.924;25.562;2022-08-19T00:01:30;12.77;;;11.30;;
54899;SDS011;40801;41.924;25.562;2022-08-19T00:03:57;13.65;;;12.43;;
54899;SDS011;40801;41.924;25.562;2022-08-19T00:06:24;12.57;;;11.40;;
54899;SDS011;40801;41.924;25.562;2022-08-19T00:08:50;12.60;;;11.68;;
54899;SDS011;40801;41.924;25.562;2022-08-19T00:11:16;12.85;;;11.73;;
54899;SDS011;40801;41.924;25.562;2022-08-19T00:13:42;12.98;;;11.77;;
54899;SDS011;40801;41.924;25.562;2022-08-19T00:16:08;12.88;;;12.00;;
54899;SDS011;40801;41.924;25.562;2022-08-19T00:18:33;13.52;;;12.20;;
54899;SDS011;40801;41.924;25.562;2022-08-19T00:20:59;13.43;;;12.18;;
54899;SDS011;40801;41.924;25.562;2022-08-19T00:23:25;12.98;;;11.98;;
54899;SDS011;40801;41.924;25.562;2022-08-19T00:25:51;13.32;;;12.07;;
54899;SDS011;40801;41.924;25.562;2022-08-19T00:28:17;13.82;;;12.82;;
54899;SDS011;40801;41.924;25.562;2022-08-19T00:30:43;13.25;;;12.27;;
54899;SDS011;40801;41.924;25.562;2022-08-19T00:33:08;14.52;;;13.05;;
54899;SDS011;40801;41.924;25.562;2022-08-19T00:35:33;12.77;;;11.63;;
54899;SDS011;40801;41.924;25.562;2022-08-19T00:37:59;14.10;;;12.90;;
54899;SDS011;40801;41.924;25.562;2022-08-19T00:40:25;13.20;;;12.18;;
54899;SDS011;40801;41.924;25.562;2022-08-19T00:42:51;13.77;;;12.63;;
54899;SDS011;40801;41.924;25.562;2022-08-19T00:45:19;13.10;;;12.00;;
54899;SDS011;40801;41.924;25.562;2022-08-19T00:47:46;13.00;;;11.70;;
54899;SDS011;40801;41.924;25.562;2022-08-19T00:50:13;12.88;;;12.00;;
54899;SDS011;40801;41.924;25.562;2022-08-19T00:52:42;12.38;;;11.18;;
54899;SDS011;40801;41.924;25.562;2022-08-19T00:55:13;12.40;;;11.50;;
54899;SDS011;40801;41.924;25.562;2022-08-19T00:57:45;12.95;;;11.85;;
54899;SDS011;40801;41.924;25.562;2022-08-19T01:00:21;12.48;;;11.48;;
54899;SDS011;40801;41.924;25.562;2022-08-19T01:02:47;13.57;;;12.43;;
54899;SDS011;40801;41.924;25.562;2022-08-19T01:05:17;13.73;;;12.70;;
54899;SDS011;40801;41.924;25.562;2022-08-19T01:07:46;13.80;;;12.40;;
54899;SDS011;40801;41.924;25.562;2022-08-19T01:10:14;12.52;;;11.60;;
54899;SDS011;40801;41.924;25.562;2022-08-19T01:12:43;14.25;;;13.00;;
54899;SDS011;40801;41.924;25.562;2022-08-19T01:15:10;15.32;;;12.88;;
54899;SDS011;40801;41.924;25.562;2022-08-19T01:17:39;13.25;;;12.15;;
54899;SDS011;40801;41.924;25.562;2022-08-19T01:20:06;13.82;;;12.75;;
54899;SDS011;40801;41.924;25.562;2022-08-19T01:25:44;13.33;;;12.33;;
54899;SDS011;40801;41.924;25.562;2022-08-19T01:28:19;12.57;;;11.57;;
54899;SDS011;40801;41.924;25.562;2022-08-19T01:30:52;13.07;;;12.07;;
54899;SDS011;40801;41.924;25.562;2022-08-19T01:33:18;13.40;;;12.40;;
54899;SDS011;40801;41.924;25.562;2022-08-19T01:35:45;13.57;;;12.52;;
54899;SDS011;40801;41.924;25.562;2022-08-19T01:38:22;13.82;;;12.75;;
54899;SDS011;40801;41.924;25.562;2022-08-19T01:40:50;13.48;;;12.25;;
54899;SDS011;40801;41.924;25.562;2022-08-19T01:43:16;13.18;;;12.18;;
54899;SDS011;40801;41.924;25.562;2022-08-19T01:45:43;13.43;;;12.43;;
54899;SDS011;40801;41.924;25.562;2022-08-19T01:48:09;14.43;;;13.15;;
54899;SDS011;40801;41.924;25.562;2022-08-19T01:50:35;14.63;;;13.35;;
54899;SDS011;40801;41.924;25.562;2022-08-19T01:53:02;14.05;;;12.95;;
54899;SDS011;40801;41.924;25.562;2022-08-19T01:55:29;13.40;;;12.30;;
54899;SDS011;40801;41.924;25.562;2022-08-19T01:57:56;14.02;;;12.93;;
54899;SDS011;40801;41.924;25.562;2022-08-19T02:00:25;13.60;;;12.70;;
54899;SDS011;40801;41.924;25.562;2022-08-19T02:02:54;14.70;;;13.50;;
54899;SDS011;40801;41.924;25.562;2022-08-19T02:05:20;14.18;;;12.85;;
54899;SDS011;40801;41.924;25.562;2022-08-19T02:07:46;14.88;;;13.65;;
54899;SDS011;40801;41.924;25.562;2022-08-19T02:10:20;13.85;;;12.70;;
54899;SDS011;40801;41.924;25.562;2022-08-19T02:12:46;12.88;;;11.82;;
54899;SDS011;40801;41.924;25.562;2022-08-19T02:15:14;16.73;;;12.63;;
54899;SDS011;40801;41.924;25.562;2022-08-19T02:17:40;14.57;;;13.35;;
54899;SDS011;40801;41.924;25.562;2022-08-19T02:20:05;14.23;;;12.98;;
54899;SDS011;40801;41.924;25.562;2022-08-19T02:22:32;14.00;;;13.00;;
54899;SDS011;40801;41.924;25.562;2022-08-19T02:24:57;13.73;;;12.63;;
54899;SDS011;40801;41.924;25.562;2022-08-19T02:27:22;13.93;;;12.73;;
54899;SDS011;40801;41.924;25.562;2022-08-19T02:29:49;16.45;;;15.15;;
54899;SDS011;40801;41.924;25.562;2022-08-19T02:32:15;15.30;;;13.85;;
54899;SDS011;40801;41.924;25.562;2022-08-19T02:34:41;13.95;;;12.93;;
54899;SDS011;40801;41.924;25.562;2022-08-19T02:37:07;13.07;;;12.05;;
54899;SDS011;40801;41.924;25.562;2022-08-19T02:39:52;14.38;;;13.15;;
54899;SDS011;40801;41.924;25.562;2022-08-19T02:42:18;14.30;;;13.10;;
54899;SDS011;40801;41.924;25.562;2022-08-19T02:44:43;15.02;;;13.82;;
54899;SDS011;40801;41.924;25.562;2022-08-19T02:47:09;14.60;;;13.38;;
54899;SDS011;40801;41.924;25.562;2022-08-19T02:49:35;14.50;;;13.18;;
54899;SDS011;40801;41.924;25.562;2022-08-19T02:52:01;13.52;;;12.50;;
54899;SDS011;40801;41.924;25.562;2022-08-19T02:54:27;14.70;;;13.45;;
54899;SDS011;40801;41.924;25.562;2022-08-19T02:56:53;13.68;;;12.68;;
54899;SDS011;40801;41.924;25.562;2022-08-19T02:59:19;14.60;;;13.40;;
54899;SDS011;40801;41.924;25.562;2022-08-19T03:01:44;14.35;;;13.10;;
54899;SDS011;40801;41.924;25.562;2022-08-19T03:04:11;13.63;;;12.57;;
54899;SDS011;40801;41.924;25.562;2022-08-19T03:06:40;13.50;;;12.40;;
54899;SDS011;40801;41.924;25.562;2022-08-19T03:09:10;13.70;;;12.55;;
54899;SDS011;40801;41.924;25.562;2022-08-19T03:11:37;14.15;;;12.98;;
54899;SDS011;40801;41.924;25.562;2022-08-19T03:14:03;14.05;;;12.88;;
54899;SDS011;40801;41.924;25.562;2022-08-19T03:16:31;14.43;;;13.32;;
54899;SDS011;40801;41.924;25.562;2022-08-19T03:18:58;14.23;;;12.93;;
54899;SDS011;40801;41.924;25.562;2022-08-19T03:21:25;16.13;;;13.27;;
54899;SDS011;40801;41.924;25.562;2022-08-19T03:23:59;14.60;;;13.48;;
54899;SDS011;40801;41.924;25.562;2022-08-19T03:26:27;14.45;;;13.15;;
54899;SDS011;40801;41.924;25.562;2022-08-19T03:28:52;14.25;;;13.15;;
54899;SDS011;40801;41.924;25.562;2022-08-19T03:31:19;13.32;;;12.43;;
54899;SDS011;40801;41.924;25.562;2022-08-19T03:33:49;13.82;;;12.80;;
54899;SDS011;40801;41.924;25.562;2022-08-19T03:36:16;14.95;;;13.55;;
54899;SDS011;40801;41.924;25.562;2022-08-19T03:38:54;15.07;;;13.95;;
54899;SDS011;40801;41.924;25.562;2022-08-19T03:41:22;15.30;;;14.10;;
54899;SDS011;40801;41.924;25.562;2022-08-19T03:43:53;18.65;;;15.73;;
54899;SDS011;40801;41.924;25.562;2022-08-19T03:46:22;17.00;;;13.90;;
54899;SDS011;40801;41.924;25.562;2022-08-19T03:48:53;15.35;;;13.38;;
54899;SDS011;40801;41.924;25.562;2022-08-19T03:51:22;15.32;;;13.98;;
54899;SDS011;40801;41.924;25.562;2022-08-19T03:53:51;16.00;;;14.70;;
54899;SDS011;40801;41.924;25.562;2022-08-19T03:56:18;15.23;;;13.68;;
54899;SDS011;40801;41.924;25.562;2022-08-19T03:58:44;16.27;;;14.60;;
54899;SDS011;40801;41.924;25.562;2022-08-19T04:01:12;16.15;;;13.70;;
54899;SDS011;40801;41.924;25.562;2022-08-19T04:03:40;13.95;;;12.85;;
54899;SDS011;40801;41.924;25.562;2022-08-19T04:06:12;15.60;;;14.00;;
54899;SDS011;40801;41.924;25.562;2022-08-19T04:08:43;16.45;;;14.90;;
54899;SDS011;40801;41.924;25.562;2022-08-19T04:11:12;14.43;;;13.10;;
54899;SDS011;40801;41.924;25.562;2022-08-19T04:13:40;14.98;;;13.63;;
54899;SDS011;40801;41.924;25.562;2022-08-19T04:16:07;14.57;;;13.18;;
54899;SDS011;40801;41.924;25.562;2022-08-19T04:18:34;13.70;;;12.55;;
54899;SDS011;40801;41.924;25.562;2022-08-19T04:21:00;14.68;;;13.48;;
54899;SDS011;40801;41.924;25.562;2022-08-19T04:23:26;16.65;;;15.15;;
54899;SDS011;40801;41.924;25.562;2022-08-19T04:25:53;16.42;;;14.90;;
54899;SDS011;40801;41.924;25.562;2022-08-19T04:28:19;15.98;;;14.68;;
54899;SDS011;40801;41.924;25.562;2022-08-19T04:30:45;15.18;;;13.68;;
54899;SDS011;40801;41.924;25.562;2022-08-19T04:33:13;19.45;;;15.93;;
54899;SDS011;40801;41.924;25.562;2022-08-19T04:35:41;21.65;;;18.70;;
54899;SDS011;40801;41.924;25.562;2022-08-19T04:38:10;20.15;;;18.50;;
54899;SDS011;40801;41.924;25.562;2022-08-19T04:40:40;15.45;;;14.15;;
54899;SDS011;40801;41.924;25.562;2022-08-19T04:43:26;13.50;;;12.50;;
54899;SDS011;40801;41.924;25.562;2022-08-19T04:45:51;14.45;;;13.15;;
54899;SDS011;40801;41.924;25.562;2022-08-19T04:48:18;14.85;;;13.48;;
54899;SDS011;40801;41.924;25.562;2022-08-19T04:50:54;12.88;;;11.88;;
54899;SDS011;40801;41.924;25.562;2022-08-19T04:55:54;13.13;;;12.18;;
54899;SDS011;40801;41.924;25.562;2022-08-19T04:58:21;14.77;;;13.43;;
54899;SDS011;40801;41.924;25.562;2022-08-19T05:00:48;20.00;;;18.33;;
54899;SDS011;40801;41.924;25.562;2022-08-19T05:03:13;13.98;;;12.77;;
54899;SDS011;40801;41.924;25.562;2022-08-19T05:05:42;14.00;;;12.80;;
54899;SDS011;40801;41.924;25.562;2022-08-19T05:08:09;13.32;;;12.05;;
54899;SDS011;40801;41.924;25.562;2022-08-19T05:10:36;14.48;;;13.10;;
54899;SDS011;40801;41.924;25.562;2022-08-19T05:13:03;13.50;;;12.38;;
54899;SDS011;40801;41.924;25.562;2022-08-19T05:15:29;13.07;;;12.02;;
54899;SDS011;40801;41.924;25.562;2022-08-19T05:17:54;14.13;;;12.95;;
54899;SDS011;40801;41.924;25.562;2022-08-19T05:20:38;14.23;;;13.02;;
54899;SDS011;40801;41.924;25.562;2022-08-19T05:23:22;14.18;;;12.80;;
54899;SDS011;40801;41.924;25.562;2022-08-19T05:25:48;14.55;;;13.43;;
54899;SDS011;40801;41.924;25.562;2022-08-19T05:28:13;14.98;;;13.65;;
54899;SDS011;40801;41.924;25.562;2022-08-19T05:30:39;17.42;;;16.02;;
54899;SDS011;40801;41.924;25.562;2022-08-19T05:33:06;15.45;;;13.95;;
54899;SDS011;40801;41.924;25.562;2022-08-19T05:35:34;15.23;;;13.75;;
54899;SDS011;40801;41.924;25.562;2022-08-19T05:38:02;14.77;;;13.35;;
54899;SDS011;40801;41.924;25.562;2022-08-19T05:40:28;15.20;;;13.73;;
54899;SDS011;40801;41.924;25.562;2022-08-19T05:42:53;14.35;;;13.15;;
54899;SDS011;40801;41.924;25.562;2022-08-19T05:45:19;20.65;;;18.63;;
54899;SDS011;40801;41.924;25.562;2022-08-19T05:47:46;17.50;;;15.70;;
54899;SDS011;40801;41.924;25.562;2022-08-19T05:50:11;14.48;;;13.05;;
54899;SDS011;40801;41.924;25.562;2022-08-19T05:52:37;23.05;;;13.35;;
54899;SDS011;40801;41.924;25.562;2022-08-19T05:55:03;14.13;;;12.88;;
54899;SDS011;40801;41.924;25.562;2022-08-19T05:57:29;14.63;;;13.35;;
54899;SDS011;40801;41.924;25.562;2022-08-19T05:59:55;13.57;;;12.43;;
54899;SDS011;40801;41.924;25.562;2022-08-19T06:02:21;14.05;;;12.68;;
54899;SDS011;40801;41.924;25.562;2022-08-19T06:04:47;14.20;;;12.82;;
54899;SDS011;40801;41.924;25.562;2022-08-19T06:07:12;17.85;;;16.02;;
54899;SDS011;40801;41.924;25.562;2022-08-19T06:09:38;15.82;;;14.43;;
54899;SDS011;40801;41.924;25.562;2022-08-19T06:12:04;13.65;;;12.35;;
54899;SDS011;40801;41.924;25.562;2022-08-19T06:14:31;33.70;;;30.25;;
54899;SDS011;40801;41.924;25.562;2022-08-19T06:19:26;14.93;;;13.45;;
54899;SDS011;40801;41.924;25.562;2022-08-19T06:21:55;15.57;;;13.68;;
54899;SDS011;40801;41.924;25.562;2022-08-19T06:24:23;14.02;;;12.70;;
54899;SDS011;40801;41.924;25.562;2022-08-19T06:26:51;14.02;;;11.80;;
54899;SDS011;40801;41.924;25.562;2022-08-19T06:29:17;13.30;;;12.05;;
54899;SDS011;40801;41.924;25.562;2022-08-19T06:31:45;17.33;;;15.38;;
54899;SDS011;40801;41.924;25.562;2022-08-19T06:34:14;13.07;;;12.07;;
54899;SDS011;40801;41.924;25.562;2022-08-19T06:36:41;14.02;;;12.82;;
54899;SDS011;40801;41.924;25.562;2022-08-19T06:39:13;12.95;;;11.85;;
54899;SDS011;40801;41.924;25.562;2022-08-19T06:41:42;20.55;;;17.38;;
54899;SDS011;40801;41.924;25.562;2022-08-19T06:44:10;13.65;;;12.38;;
54899;SDS011;40801;41.924;25.562;2022-08-19T06:46:36;12.63;;;11.52;;
54899;SDS011;40801;41.924;25.562;2022-08-19T06:49:03;12.02;;;11.15;;
54899;SDS011;40801;41.924;25.562;2022-08-19T06:51:29;11.55;;;10.57;;
54899;SDS011;40801;41.924;25.562;2022-08-19T06:53:57;11.10;;;10.27;;
54899;SDS011;40801;41.924;25.562;2022-08-19T06:56:24;15.80;;;12.73;;
54899;SDS011;40801;41.924;25.562;2022-08-19T06:58:56;12.07;;;10.98;;
54899;SDS011;40801;41.924;25.562;2022-08-19T07:01:22;11.52;;;10.52;;
54899;SDS011;40801;41.924;25.562;2022-08-19T07:03:47;11.15;;;10.23;;
54899;SDS011;40801;41.924;25.562;2022-08-19T07:06:14;13.23;;;11.40;;
54899;SDS011;40801;41.924;25.562;2022-08-19T07:08:42;11.40;;;10.50;;
54899;SDS011;40801;41.924;25.562;2022-08-19T07:11:13;18.80;;;12.13;;
54899;SDS011;40801;41.924;25.562;2022-08-19T07:13:42;11.75;;;10.85;;
54899;SDS011;40801;41.924;25.562;2022-08-19T07:16:11;11.57;;;10.55;;
54899;SDS011;40801;41.924;25.562;2022-08-19T07:18:39;12.55;;;11.10;;
54899;SDS011;40801;41.924;25.562;2022-08-19T07:21:10;10.85;;;10.13;;
54899;SDS011;40801;41.924;25.562;2022-08-19T07:23:40;15.07;;;13.73;;
54899;SDS011;40801;41.924;25.562;2022-08-19T07:26:07;11.30;;;10.40;;
54899;SDS011;40801;41.924;25.562;2022-08-19T07:28:34;11.48;;;10.35;;
54899;SDS011;40801;41.924;25.562;2022-08-19T07:31:03;11.30;;;10.23;;
54899;SDS011;40801;41.924;25.562;2022-08-19T07:33:32;13.65;;;12.20;;
54899;SDS011;40801;41.924;25.562;2022-08-19T07:36:00;12.15;;;10.95;;
54899;SDS011;40801;41.924;25.562;2022-08-19T07:38:26;12.13;;;9.98;;
54899;SDS011;40801;41.924;25.562;2022-08-19T07:40:51;11.75;;;10.05;;
54899;SDS011;40801;41.924;25.562;2022-08-19T07:43:17;11.43;;;10.43;;
54899;SDS011;40801;41.924;25.562;2022-08-19T07:45:48;11.30;;;10.40;;
54899;SDS011;40801;41.924;25.562;2022-08-19T07:48:13;11.35;;;10.27;;
54899;SDS011;40801;41.924;25.562;2022-08-19T07:50:39;11.25;;;10.27;;
54899;SDS011;40801;41.924;25.562;2022-08-19T07:53:05;12.15;;;10.18;;
54899;SDS011;40801;41.924;25.562;2022-08-19T07:55:30;10.68;;;9.75;;
54899;SDS011;40801;41.924;25.562;2022-08-19T07:57:56;11.07;;;10.07;;
54899;SDS011;40801;41.924;25.562;2022-08-19T08:00:22;11.40;;;10.40;;
54899;SDS011;40801;41.924;25.562;2022-08-19T08:02:47;11.73;;;10.63;;
54899;SDS011;40801;41.924;25.562;2022-08-19T08:05:13;11.50;;;10.55;;
54899;SDS011;40801;41.924;25.562;2022-08-19T08:07:57;12.43;;;10.18;;
54899;SDS011;40801;41.924;25.562;2022-08-19T08:10:41;11.15;;;10.27;;
54899;SDS011;40801;41.924;25.562;2022-08-19T08:13:15;11.38;;;10.00;;
54899;SDS011;40801;41.924;25.562;2022-08-19T08:15:41;11.20;;;10.18;;
54899;SDS011;40801;41.924;25.562;2022-08-19T08:18:07;10.45;;;9.70;;
54899;SDS011;40801;41.924;25.562;2022-08-19T08:20:32;12.23;;;11.00;;
54899;SDS011;40801;41.924;25.562;2022-08-19T08:22:58;11.48;;;10.57;;
54899;SDS011;40801;41.924;25.562;2022-08-19T08:25:42;11.02;;;10.13;;
54899;SDS011;40801;41.924;25.562;2022-08-19T08:28:08;10.60;;;9.80;;
54899;SDS011;40801;41.924;25.562;2022-08-19T08:30:34;11.88;;;9.73;;
54899;SDS011;40801;41.924;25.562;2022-08-19T08:33:01;10.93;;;10.13;;
54899;SDS011;40801;41.924;25.562;2022-08-19T08:35:27;10.70;;;9.90;;
54899;SDS011;40801;41.924;25.562;2022-08-19T08:37:53;11.30;;;10.38;;
54899;SDS011;40801;41.924;25.562;2022-08-19T08:43:32;10.95;;;9.95;;
54899;SDS011;40801;41.924;25.562;2022-08-19T08:46:05;11.60;;;10.50;;
54899;SDS011;40801;41.924;25.562;2022-08-19T08:48:48;9.95;;;9.25;;
54899;SDS011;40801;41.924;25.562;2022-08-19T08:51:38;11.98;;;10.93;;
54899;SDS011;40801;41.924;25.562;2022-08-19T08:54:13;11.68;;;10.70;;
54899;SDS011;40801;41.924;25.562;2022-08-19T08:56:43;11.95;;;11.05;;
54899;SDS011;40801;41.924;25.562;2022-08-19T08:59:12;10.45;;;9.55;;
54899;SDS011;40801;41.924;25.562;2022-08-19T09:01:46;9.82;;;9.07;;
54899;SDS011;40801;41.924;25.562;2022-08-19T09:04:13;9.95;;;9.05;;
54899;SDS011;40801;41.924;25.562;2022-08-19T09:09:45;10.98;;;9.50;;
54899;SDS011;40801;41.924;25.562;2022-08-19T09:15:04;9.10;;;8.27;;
54899;SDS011;40801;41.924;25.562;2022-08-19T09:17:33;9.02;;;8.43;;
54899;SDS011;40801;41.924;25.562;2022-08-19T09:22:33;10.23;;;9.23;;
54899;SDS011;40801;41.924;25.562;2022-08-19T09:25:00;9.43;;;8.57;;
54899;SDS011;40801;41.924;25.562;2022-08-19T09:27:26;9.55;;;8.75;;
54899;SDS011;40801;41.924;25.562;2022-08-19T09:29:53;11.33;;;10.33;;
54899;SDS011;40801;41.924;25.562;2022-08-19T09:32:20;9.88;;;9.27;;
54899;SDS011;40801;41.924;25.562;2022-08-19T09:34:46;10.00;;;9.30;;
54899;SDS011;40801;41.924;25.562;2022-08-19T09:37:12;9.50;;;8.80;;
54899;SDS011;40801;41.924;25.562;2022-08-19T09:39:38;10.00;;;9.13;;
54899;SDS011;40801;41.924;25.562;2022-08-19T09:44:34;9.20;;;8.60;;
54899;SDS011;40801;41.924;25.562;2022-08-19T09:46:59;9.50;;;8.50;;
54899;SDS011;40801;41.924;25.562;2022-08-19T09:49:25;8.43;;;7.82;;
54899;SDS011;40801;41.924;25.562;2022-08-19T09:51:51;8.45;;;7.95;;
54899;SDS011;40801;41.924;25.562;2022-08-19T09:54:18;8.43;;;7.72;;
54899;SDS011;40801;41.924;25.562;2022-08-19T09:56:44;9.10;;;8.30;;
54899;SDS011;40801;41.924;25.562;2022-08-19T09:59:09;8.10;;;7.40;;
54899;SDS011;40801;41.924;25.562;2022-08-19T10:01:37;8.57;;;7.97;;
54899;SDS011;40801;41.924;25.562;2022-08-19T10:04:03;7.47;;;6.97;;
54899;SDS011;40801;41.924;25.562;2022-08-19T10:06:36;9.25;;;8.55;;
54899;SDS011;40801;41.924;25.562;2022-08-19T10:09:05;10.00;;;7.57;;
54899;SDS011;40801;41.924;25.562;2022-08-19T10:11:32;8.48;;;7.78;;
54899;SDS011;40801;41.924;25.562;2022-08-19T10:13:58;9.05;;;8.35;;
54899;SDS011;40801;41.924;25.562;2022-08-19T10:16:24;8.52;;;7.93;;
54899;SDS011;40801;41.924;25.562;2022-08-19T10:18:50;8.65;;;7.95;;
54899;SDS011;40801;41.924;25.562;2022-08-19T10:21:18;8.23;;;7.50;;
54899;SDS011;40801;41.924;25.562;2022-08-19T10:23:48;9.73;;;8.57;;
54899;SDS011;40801;41.924;25.562;2022-08-19T10:26:16;8.20;;;7.50;;
54899;SDS011;40801;41.924;25.562;2022-08-19T10:28:43;8.38;;;7.68;;
54899;SDS011;40801;41.924;25.562;2022-08-19T10:31:10;8.55;;;7.93;;
54899;SDS011;40801;41.924;25.562;2022-08-19T10:33:40;8.27;;;7.55;;
54899;SDS011;40801;41.924;25.562;2022-08-19T10:36:07;7.32;;;6.70;;
54899;SDS011;40801;41.924;25.562;2022-08-19T10:38:40;8.43;;;7.70;;
54899;SDS011;40801;41.924;25.562;2022-08-19T10:41:10;7.30;;;6.80;;
54899;SDS011;40801;41.924;25.562;2022-08-19T10:43:40;7.38;;;6.88;;
54899;SDS011;40801;41.924;25.562;2022-08-19T10:46:06;8.73;;;8.13;;
54899;SDS011;40801;41.924;25.562;2022-08-19T10:50:59;10.63;;;7.75;;
54899;SDS011;40801;41.924;25.562;2022-08-19T10:53:44;8.32;;;7.30;;
54899;SDS011;40801;41.924;25.562;2022-08-19T10:56:09;7.97;;;7.47;;
54899;SDS011;40801;41.924;25.562;2022-08-19T10:58:53;8.32;;;7.75;;
54899;SDS011;40801;41.924;25.562;2022-08-19T11:01:19;7.63;;;7.18;;
54899;SDS011;40801;41.924;25.562;2022-08-19T11:03:45;8.02;;;7.57;;
54899;SDS011;40801;41.924;25.562;2022-08-19T11:06:10;8.48;;;7.95;;
54899;SDS011;40801;41.924;25.562;2022-08-19T11:08:36;8.52;;;7.93;;
54899;SDS011;40801;41.924;25.562;2022-08-19T11:11:02;8.80;;;8.10;;
54899;SDS011;40801;41.924;25.562;2022-08-19T11:13:31;8.73;;;7.95;;
54899;SDS011;40801;41.924;25.562;2022-08-19T11:15:59;8.90;;;8.20;;
54899;SDS011;40801;41.924;25.562;2022-08-19T11:18:27;8.35;;;7.82;;
54899;SDS011;40801;41.924;25.562;2022-08-19T11:20:52;8.88;;;8.18;;
54899;SDS011;40801;41.924;25.562;2022-08-19T11:23:18;8.65;;;7.75;;
54899;SDS011;40801;41.924;25.562;2022-08-19T11:25:43;8.15;;;7.55;;
54899;SDS011;40801;41.924;25.562;2022-08-19T11:28:10;9.60;;;8.90;;
54899;SDS011;40801;41.924;25.562;2022-08-19T11:30:37;9.85;;;8.43;;
54899;SDS011;40801;41.924;25.562;2022-08-19T11:33:03;8.43;;;7.97;;
54899;SDS011;40801;41.924;25.562;2022-08-19T11:35:28;9.73;;;8.88;;
54899;SDS011;40801;41.924;25.562;2022-08-19T11:37:54;8.55;;;7.72;;
54899;SDS011;40801;41.924;25.562;2022-08-19T11:40:21;8.57;;;7.90;;
54899;SDS011;40801;41.924;25.562;2022-08-19T11:42:46;9.10;;;8.40;;
54899;SDS011;40801;41.924;25.562;2022-08-19T11:45:21;9.55;;;8.90;;
54899;SDS011;40801;41.924;25.562;2022-08-19T11:47:47;8.55;;;8.00;;
54899;SDS011;40801;41.924;25.562;2022-08-19T11:50:13;8.55;;;8.05;;
54899;SDS011;40801;41.924;25.562;2022-08-19T11:52:39;9.10;;;8.60;;
54899;SDS011;40801;41.924;25.562;2022-08-19T11:55:05;8.35;;;7.85;;
54899;SDS011;40801;41.924;25.562;2022-08-19T11:57:31;9.05;;;8.45;;
54899;SDS011;40801;41.924;25.562;2022-08-19T11:59:57;8.73;;;8.13;;
54899;SDS011;40801;41.924;25.562;2022-08-19T12:02:22;9.00;;;8.45;;
54899;SDS011;40801;41.924;25.562;2022-08-19T12:04:48;8.95;;;8.25;;
54899;SDS011;40801;41.924;25.562;2022-08-19T12:07:14;8.25;;;7.75;;
54899;SDS011;40801;41.924;25.562;2022-08-19T12:09:39;9.13;;;8.43;;
54899;SDS011;40801;41.924;25.562;2022-08-19T12:12:05;9.25;;;8.52;;
54899;SDS011;40801;41.924;25.562;2022-08-19T12:14:31;8.63;;;7.78;;
54899;SDS011;40801;41.924;25.562;2022-08-19T12:16:57;8.77;;;7.97;;
54899;SDS011;40801;41.924;25.562;2022-08-19T12:19:22;8.82;;;8.18;;
54899;SDS011;40801;41.924;25.562;2022-08-19T12:21:49;7.90;;;7.37;;
54899;SDS011;40801;41.924;25.562;2022-08-19T12:24:16;9.48;;;8.68;;
54899;SDS011;40801;41.924;25.562;2022-08-19T12:26:47;8.77;;;8.27;;
54899;SDS011;40801;41.924;25.562;2022-08-19T12:29:13;8.10;;;7.60;;
54899;SDS011;40801;41.924;25.562;2022-08-19T12:31:38;8.50;;;8.00;;
54899;SDS011;40801;41.924;25.562;2022-08-19T12:34:04;8.68;;;8.13;;
54899;SDS011;40801;41.924;25.562;2022-08-19T12:36:30;9.50;;;8.60;;
54899;SDS011;40801;41.924;25.562;2022-08-19T12:38:55;7.95;;;7.40;;
54899;SDS011;40801;41.924;25.562;2022-08-19T12:43:48;8.30;;;7.57;;
54899;SDS011;40801;41.924;25.562;2022-08-19T12:46:14;8.35;;;7.60;;
54899;SDS011;40801;41.924;25.562;2022-08-19T12:48:40;8.23;;;7.60;;
54899;SDS011;40801;41.924;25.562;2022-08-19T12:51:11;8.13;;;7.43;;
54899;SDS011;40801;41.924;25.562;2022-08-19T12:53:38;7.95;;;7.25;;
54899;SDS011;40801;41.924;25.562;2022-08-19T12:56:04;7.95;;;7.40;;
54899;SDS011;40801;41.924;25.562;2022-08-19T12:58:30;7.65;;;7.13;;
54899;SDS011;40801;41.924;25.562;2022-08-19T13:00:59;7.75;;;7.10;;
54899;SDS011;40801;41.924;25.562;2022-08-19T13:03:25;9.23;;;8.52;;
54899;SDS011;40801;41.924;25.562;2022-08-19T13:05:54;7.72;;;7.22;;
54899;SDS011;40801;41.924;25.562;2022-08-19T13:08:20;8.82;;;8.05;;
54899;SDS011;40801;41.924;25.562;2022-08-19T13:10:45;8.45;;;7.85;;
54899;SDS011;40801;41.924;25.562;2022-08-19T13:13:11;7.90;;;7.40;;
54899;SDS011;40801;41.924;25.562;2022-08-19T13:15:37;7.80;;;7.07;;
54899;SDS011;40801;41.924;25.562;2022-08-19T13:18:05;7.72;;;7.05;;
54899;SDS011;40801;41.924;25.562;2022-08-19T13:20:34;7.65;;;7.05;;
54899;SDS011;40801;41.924;25.562;2022-08-19T13:23:00;7.10;;;6.60;;
54899;SDS011;40801;41.924;25.562;2022-08-19T13:25:25;8.02;;;7.28;;
54899;SDS011;40801;41.924;25.562;2022-08-19T13:27:51;7.88;;;7.15;;
54899;SDS011;40801;41.924;25.562;2022-08-19T13:30:18;8.15;;;7.40;;
54899;SDS011;40801;41.924;25.562;2022-08-19T13:33:03;7.95;;;7.25;;
54899;SDS011;40801;41.924;25.562;2022-08-19T13:35:48;7.55;;;6.78;;
54899;SDS011;40801;41.924;25.562;2022-08-19T13:38:22;6.53;;;6.03;;
54899;SDS011;40801;41.924;25.562;2022-08-19T13:40:49;6.25;;;5.80;;
54899;SDS011;40801;41.924;25.562;2022-08-19T13:43:17;6.03;;;5.60;;
54899;SDS011;40801;41.924;25.562;2022-08-19T13:45:44;6.75;;;6.28;;
54899;SDS011;40801;41.924;25.562;2022-08-19T13:48:10;6.63;;;6.13;;
54899;SDS011;40801;41.924;25.562;2022-08-19T13:50:40;5.97;;;5.57;;
54899;SDS011;40801;41.924;25.562;2022-08-19T13:53:09;5.35;;;5.05;;
54899;SDS011;40801;41.924;25.562;2022-08-19T13:55:37;6.47;;;5.88;;
54899;SDS011;40801;41.924;25.562;2022-08-19T13:58:03;6.20;;;5.60;;
54899;SDS011;40801;41.924;25.562;2022-08-19T14:00:31;5.65;;;5.15;;
54899;SDS011;40801;41.924;25.562;2022-08-19T14:02:59;5.50;;;5.00;;
54899;SDS011;40801;41.924;25.562;2022-08-19T14:05:25;6.10;;;5.65;;
54899;SDS011;40801;41.924;25.562;2022-08-19T14:07:51;5.97;;;5.50;;
54899;SDS011;40801;41.924;25.562;2022-08-19T14:10:17;6.03;;;5.60;;
54899;SDS011;40801;41.924;25.562;2022-08-19T14:12:44;6.50;;;6.00;;
54899;SDS011;40801;41.924;25.562;2022-08-19T14:15:10;5.00;;;4.70;;
54899;SDS011;40801;41.924;25.562;2022-08-19T14:17:37;5.75;;;5.35;;
54899;SDS011;40801;41.924;25.562;2022-08-19T14:20:05;5.60;;;5.20;;
54899;SDS011;40801;41.924;25.562;2022-08-19T14:22:34;6.10;;;5.65;;
54899;SDS011;40801;41.924;25.562;2022-08-19T14:25:01;6.32;;;5.82;;
54899;SDS011;40801;41.924;25.562;2022-08-19T14:27:27;9.00;;;6.80;;
54899;SDS011;40801;41.924;25.562;2022-08-19T14:29:53;5.57;;;5.18;;
54899;SDS011;40801;41.924;25.562;2022-08-19T14:32:18;5.70;;;5.20;;
54899;SDS011;40801;41.924;25.562;2022-08-19T14:34:44;5.75;;;5.35;;
54899;SDS011;40801;41.924;25.562;2022-08-19T14:37:13;6.28;;;5.78;;
54899;SDS011;40801;41.924;25.562;2022-08-19T14:39:40;5.30;;;4.90;;
54899;SDS011;40801;41.924;25.562;2022-08-19T14:42:09;5.55;;;5.15;;
54899;SDS011;40801;41.924;25.562;2022-08-19T14:44:35;5.80;;;5.32;;
54899;SDS011;40801;41.924;25.562;2022-08-19T14:47:01;6.07;;;5.50;;
54899;SDS011;40801;41.924;25.562;2022-08-19T14:49:26;5.95;;;5.40;;